Time;durP1;ratioP1;P1;durP2;ratioP2;P2;SDS_P1;SDS_P2;PMS_P1;PMS_P2;Temp;Humidity;BMP_temperature;BMP_pressure;BME280_temperature;BME280_humidity;BME280_pressure;Samples;Min_cycle;Max_cycle;Signal;HPM_P1;HPM_P2
2024/01/10 00:01:44;;;;;;;1.38;0.55;;;-0.50;46.80;;;;;;5044174;28;20452;-65
2024/01/10 00:04:09;;;;;;;1.33;0.82;;;-0.50;46.90;;;;;;5033996;28;20025;-66
2024/01/10 00:06:35;;;;;;;2.15;1.08;;;-0.60;47.00;;;;;;5034213;28;20163;-66
2024/01/10 00:09:02;;;;;;;3.33;0.95;;;-0.60;47.20;;;;;;5035670;28;20037;-65
2024/01/10 00:11:27;;;;;;;1.00;0.88;;;-0.60;47.30;;;;;;5018316;28;20492;-66
2024/01/10 00:13:59;;;;;;;1.00;0.73;;;-0.60;47.30;;;;;;5032862;28;20037;-66
2024/01/10 00:16:26;;;;;;;1.42;0.80;;;-0.60;47.40;;;;;;5037059;28;20033;-65
2024/01/10 00:18:52;;;;;;;0.85;0.50;;;-0.60;47.70;;;;;;5031191;28;20123;-65
2024/01/10 00:21:17;;;;;;;1.80;0.77;;;-0.60;48.10;;;;;;5036214;28;20076;-65
2024/01/10 00:23:43;;;;;;;1.23;0.52;;;-0.70;48.30;;;;;;5031698;28;20050;-65
2024/01/10 00:26:09;;;;;;;1.05;0.82;;;-0.80;48.30;;;;;;5034688;28;20412;-65
2024/01/10 00:28:34;;;;;;;1.45;1.08;;;-0.80;48.40;;;;;;5038550;28;20037;-65
2024/01/10 00:31:00;;;;;;;1.23;0.80;;;-0.80;48.60;;;;;;5031101;28;20036;-65
2024/01/10 00:33:26;;;;;;;10.30;0.98;;;-0.80;48.70;;;;;;5033799;28;20029;-65
2024/01/10 00:35:52;;;;;;;2.20;0.95;;;-0.80;48.80;;;;;;5034087;28;20524;-65
2024/01/10 00:38:18;;;;;;;1.52;0.98;;;-0.90;48.90;;;;;;5031349;28;20064;-65
2024/01/10 00:40:43;;;;;;;0.88;0.80;;;-0.90;49.10;;;;;;5032551;28;20075;-65
2024/01/10 00:43:09;;;;;;;1.70;0.80;;;-0.90;49.10;;;;;;5064345;28;20033;-66
2024/01/10 00:45:35;;;;;;;1.23;0.75;;;-0.90;49.20;;;;;;5035153;28;20048;-65
2024/01/10 00:48:01;;;;;;;1.52;0.88;;;-0.90;50.00;;;;;;5027731;28;20034;-66
2024/01/10 00:50:26;;;;;;;1.50;0.93;;;-0.90;49.30;;;;;;5033113;28;20462;-65
2024/01/10 00:52:52;;;;;;;1.48;1.00;;;-0.90;49.50;;;;;;5028180;28;20040;-65
2024/01/10 00:55:18;;;;;;;1.02;0.47;;;-0.90;49.50;;;;;;5033465;28;20112;-65
2024/01/10 00:57:44;;;;;;;2.22;1.50;;;-1.00;49.60;;;;;;5029117;28;20033;-65
2024/01/10 01:00:10;;;;;;;1.52;0.80;;;-1.00;49.80;;;;;;5031577;28;20033;-65
2024/01/10 01:02:39;;;;;;;2.63;1.13;;;-1.00;49.90;;;;;;5035193;28;20035;-65
2024/01/10 01:05:07;;;;;;;0.70;0.57;;;-1.00;50.00;;;;;;5033234;28;20041;-65
2024/01/10 01:07:33;;;;;;;0.73;0.68;;;-1.10;50.00;;;;;;5038408;28;20064;-65
2024/01/10 01:10:00;;;;;;;1.08;0.75;;;-1.10;50.40;;;;;;5037499;28;20049;-65
2024/01/10 01:12:26;;;;;;;2.15;0.68;;;-1.00;50.50;;;;;;5034930;28;20025;-65
2024/01/10 01:14:51;;;;;;;0.88;0.47;;;-1.10;50.30;;;;;;5036631;28;20093;-66
2024/01/10 01:17:17;;;;;;;3.45;1.45;;;-1.10;50.50;;;;;;5041020;28;20452;-65
2024/01/10 01:19:43;;;;;;;1.65;1.17;;;-1.10;50.50;;;;;;5034562;28;20048;-65
2024/01/10 01:22:09;;;;;;;0.57;0.57;;;-1.00;50.50;;;;;;5038390;28;20037;-65
2024/01/10 01:24:34;;;;;;;1.73;0.75;;;-1.10;50.40;;;;;;5037445;28;20072;-65
2024/01/10 01:27:00;;;;;;;2.97;1.10;;;-1.10;50.40;;;;;;5072260;28;20095;-65
2024/01/10 01:29:26;;;;;;;1.02;0.70;;;-1.10;50.30;;;;;;5035247;28;20030;-66
2024/01/10 01:31:53;;;;;;;2.00;0.70;;;-1.10;50.40;;;;;;5037520;28;20032;-65
2024/01/10 01:34:19;;;;;;;1.20;0.68;;;-1.10;50.60;;;;;;5033564;28;20052;-65
2024/01/10 01:36:45;;;;;;;1.15;0.88;;;-1.10;51.20;;;;;;5031817;28;20026;-65
2024/01/10 01:39:13;;;;;;;0.80;0.75;;;-1.10;50.70;;;;;;5031252;28;20033;-65
2024/01/10 01:41:39;;;;;;;1.58;0.98;;;-1.10;50.80;;;;;;5033042;28;20029;-65
2024/01/10 01:44:05;;;;;;;1.38;0.95;;;-1.10;51.40;;;;;;5032396;28;20498;-65
2024/01/10 01:46:32;;;;;;;2.08;0.70;;;-1.10;50.70;;;;;;5030318;28;20120;-65
2024/01/10 01:48:58;;;;;;;0.68;0.52;;;-1.10;50.80;;;;;;5029717;28;20037;-65
2024/01/10 01:51:26;;;;;;;1.45;0.70;;;-1.10;50.90;;;;;;5040939;28;20055;-65
2024/01/10 01:53:53;;;;;;;4.22;0.70;;;-1.10;51.00;;;;;;5024861;28;20030;-65
2024/01/10 01:56:19;;;;;;;0.93;0.60;;;-1.20;51.10;;;;;;5034306;28;20043;-65
2024/01/10 01:58:46;;;;;;;2.42;1.08;;;-1.20;51.00;;;;;;5033719;28;20108;-66
2024/01/10 02:01:12;;;;;;;4.63;0.82;;;-1.10;51.10;;;;;;5037059;28;20029;-65
2024/01/10 02:03:38;;;;;;;1.75;1.17;;;-1.20;50.90;;;;;;5036318;28;20048;-65
2024/01/10 02:06:04;;;;;;;0.95;0.85;;;-1.10;50.90;;;;;;5037122;28;20865;-65
2024/01/10 02:08:33;;;;;;;1.63;0.93;;;-1.10;50.90;;;;;;5031509;28;20054;-65
2024/01/10 02:11:01;;;;;;;2.13;1.08;;;-1.10;51.00;;;;;;5031930;28;20017;-65
2024/01/10 02:13:27;;;;;;;2.08;0.82;;;-1.20;51.00;;;;;;5035196;28;20163;-65
2024/01/10 02:15:54;;;;;;;2.15;1.05;;;-1.20;51.00;;;;;;5039697;28;20053;-64
2024/01/10 02:18:20;;;;;;;2.53;0.95;;;-1.20;51.10;;;;;;5040522;28;20033;-65
2024/01/10 02:20:46;;;;;;;3.00;1.13;;;-1.20;51.20;;;;;;5036085;28;20473;-65
2024/01/10 02:23:12;;;;;;;2.78;0.75;;;-1.20;51.10;;;;;;5035528;28;20033;-65
2024/01/10 02:25:40;;;;;;;1.00;0.70;;;-1.20;51.10;;;;;;5034472;28;20040;-65
2024/01/10 02:28:06;;;;;;;2.75;1.20;;;-1.20;51.10;;;;;;5039378;28;20041;-65
2024/01/10 02:30:32;;;;;;;1.42;1.05;;;-1.20;51.20;;;;;;5031947;28;20036;-65
2024/01/10 02:32:58;;;;;;;2.10;0.90;;;-1.20;51.40;;;;;;5030822;28;20042;-65
2024/01/10 02:35:24;;;;;;;1.27;0.73;;;-1.30;51.60;;;;;;5037953;28;20025;-65
2024/01/10 02:37:51;;;;;;;3.33;1.00;;;-1.30;51.80;;;;;;5037536;28;20036;-64
2024/01/10 02:40:17;;;;;;;1.05;0.88;;;-1.30;52.00;;;;;;5036943;28;20108;-64
2024/01/10 02:42:43;;;;;;;1.33;0.88;;;-1.40;52.20;;;;;;5033183;28;20049;-65
2024/01/10 02:45:09;;;;;;;1.98;0.47;;;-1.40;52.00;;;;;;5034467;28;20475;-64
2024/01/10 02:47:37;;;;;;;1.63;0.68;;;-1.40;52.10;;;;;;5036700;28;20037;-64
2024/01/10 02:50:03;;;;;;;1.75;0.88;;;-1.40;52.80;;;;;;5037426;28;20075;-64
2024/01/10 02:52:29;;;;;;;2.05;1.25;;;-1.40;52.20;;;;;;5041714;28;20037;-64
2024/01/10 02:54:55;;;;;;;1.10;0.63;;;-1.40;52.20;;;;;;5033823;28;20025;-64
2024/01/10 02:57:20;;;;;;;0.70;0.50;;;-1.40;52.30;;;;;;5038199;28;20473;-64
2024/01/10 02:59:46;;;;;;;0.70;0.70;;;-1.50;52.50;;;;;;5044683;28;20481;-64
2024/01/10 03:02:12;;;;;;;2.47;0.98;;;-1.50;52.60;;;;;;5038999;28;20088;-64
2024/01/10 03:04:38;;;;;;;2.80;1.10;;;-1.50;52.70;;;;;;5064488;28;20147;-64
2024/01/10 03:07:03;;;;;;;3.30;1.15;;;-1.50;52.80;;;;;;5037970;28;20033;-64
2024/01/10 03:09:29;;;;;;;0.95;0.52;;;-1.60;52.90;;;;;;5037054;28;20060;-64
2024/01/10 03:11:55;;;;;;;1.80;0.73;;;-1.60;53.10;;;;;;5031060;28;20029;-64
2024/01/10 03:14:21;;;;;;;0.95;0.63;;;-1.60;53.10;;;;;;5034856;28;20075;-64
2024/01/10 03:16:48;;;;;;;1.67;0.82;;;-1.60;53.20;;;;;;5030183;28;20033;-64
2024/01/10 03:19:13;;;;;;;2.30;1.00;;;-1.60;53.40;;;;;;5039195;28;20051;-64
2024/01/10 03:21:39;;;;;;;1.08;0.70;;;-1.70;53.40;;;;;;5035782;28;20112;-64
2024/01/10 03:24:05;;;;;;;2.20;0.93;;;-1.60;53.50;;;;;;5040095;28;20509;-64
2024/01/10 03:26:31;;;;;;;0.95;0.70;;;-1.70;53.40;;;;;;5038184;28;20033;-64
2024/01/10 03:28:58;;;;;;;1.27;0.80;;;-1.60;53.50;;;;;;5036781;28;20042;-64
2024/01/10 03:31:24;;;;;;;1.05;0.70;;;-1.60;53.60;;;;;;5036143;28;20041;-64
2024/01/10 03:33:50;;;;;;;1.75;0.73;;;-1.70;53.50;;;;;;5041128;28;20025;-64
2024/01/10 03:36:17;;;;;;;1.70;0.65;;;-1.70;53.50;;;;;;5034248;28;20078;-64
2024/01/10 03:38:43;;;;;;;2.20;0.70;;;-1.70;53.50;;;;;;5035267;28;20032;-64
2024/01/10 03:41:17;;;;;;;1.98;1.10;;;-1.60;53.70;;;;;;5035551;28;20037;-65
2024/01/10 03:43:43;;;;;;;2.05;1.05;;;-1.60;53.60;;;;;;5038779;28;20535;-65
2024/01/10 03:46:10;;;;;;;2.63;1.38;;;-1.70;53.80;;;;;;5034425;28;20388;-64
2024/01/10 03:48:36;;;;;;;0.68;0.68;;;-1.70;53.80;;;;;;5035270;28;20496;-64
2024/01/10 03:51:02;;;;;;;1.33;0.93;;;-1.70;53.90;;;;;;5037522;28;20082;-64
2024/01/10 03:53:29;;;;;;;1.23;1.02;;;-1.70;53.90;;;;;;5031494;28;20033;-65
2024/01/10 03:55:55;;;;;;;0.98;0.60;;;-1.70;53.90;;;;;;5035748;28;20389;-65
2024/01/10 03:58:20;;;;;;;1.42;0.77;;;-1.70;53.90;;;;;;5037093;28;20028;-64
2024/01/10 04:00:46;;;;;;;3.80;1.13;;;-1.70;54.00;;;;;;5038748;28;20025;-65
2024/01/10 04:03:12;;;;;;;1.25;0.63;;;-1.70;54.00;;;;;;5032762;28;20025;-65
2024/01/10 04:05:37;;;;;;;1.15;0.60;;;-1.70;54.10;;;;;;5038848;28;20043;-65
2024/01/10 04:08:04;;;;;;;1.40;1.00;;;-1.70;54.20;;;;;;5035675;28;20044;-64
2024/01/10 04:10:29;;;;;;;1.83;0.95;;;-1.70;54.10;;;;;;5038304;28;20026;-64
2024/01/10 04:12:55;;;;;;;2.08;1.13;;;-1.70;54.20;;;;;;5036289;28;20026;-64
2024/01/10 04:15:21;;;;;;;0.70;0.70;;;-1.70;54.20;;;;;;5040526;28;20025;-65
2024/01/10 04:17:47;;;;;;;4.88;1.48;;;-1.70;54.20;;;;;;5031274;28;20064;-65
2024/01/10 04:20:13;;;;;;;1.90;0.75;;;-1.70;54.30;;;;;;5042183;28;20045;-65
2024/01/10 04:22:39;;;;;;;3.10;1.77;;;-1.70;54.40;;;;;;5034820;28;20397;-64
2024/01/10 04:25:06;;;;;;;2.22;1.05;;;-1.70;54.40;;;;;;5034372;28;20041;-64
2024/01/10 04:27:32;;;;;;;4.43;1.10;;;-1.70;54.60;;;;;;5032154;28;20515;-64
2024/01/10 04:29:58;;;;;;;2.67;1.10;;;-1.70;54.60;;;;;;5035991;28;20037;-64
2024/01/10 04:32:24;;;;;;;1.48;0.85;;;-1.70;54.60;;;;;;5042200;28;20087;-64
2024/01/10 04:34:49;;;;;;;2.60;0.93;;;-1.70;54.60;;;;;;5035964;28;20127;-64
2024/01/10 04:37:16;;;;;;;0.95;0.80;;;-1.70;54.50;;;;;;5033850;28;20030;-64
2024/01/10 04:39:42;;;;;;;1.50;0.93;;;-1.70;54.60;;;;;;5041772;28;20051;-64
2024/01/10 04:42:10;;;;;;;1.83;1.02;;;-1.70;54.80;;;;;;5036286;28;20037;-64
2024/01/10 04:44:36;;;;;;;1.08;0.75;;;-1.80;54.90;;;;;;5029500;28;20097;-65
2024/01/10 04:47:02;;;;;;;2.53;1.30;;;-1.80;54.90;;;;;;5033857;28;20052;-64
2024/01/10 04:49:28;;;;;;;3.50;1.27;;;-1.80;55.10;;;;;;5033169;28;20025;-65
2024/01/10 04:51:54;;;;;;;2.15;1.25;;;-1.90;55.10;;;;;;5032069;28;20082;-65
2024/01/10 04:54:20;;;;;;;0.82;0.60;;;-1.90;55.20;;;;;;5030347;28;20040;-65
2024/01/10 04:56:46;;;;;;;5.25;0.98;;;-1.90;55.30;;;;;;5030919;28;20048;-65
2024/01/10 04:59:12;;;;;;;2.42;1.00;;;-1.90;55.60;;;;;;5037679;28;20025;-65
2024/01/10 05:01:38;;;;;;;2.30;1.13;;;-2.00;55.70;;;;;;5034997;28;20476;-65
2024/01/10 05:04:04;;;;;;;6.50;1.02;;;-2.00;55.70;;;;;;5035471;28;20037;-64
2024/01/10 05:06:29;;;;;;;4.55;1.23;;;-2.00;55.70;;;;;;5033616;28;20061;-65
2024/01/10 05:08:57;;;;;;;2.15;0.98;;;-2.00;55.90;;;;;;5039656;28;20508;-65
2024/01/10 05:11:25;;;;;;;1.42;0.70;;;-2.00;56.00;;;;;;5033402;28;20385;-65
2024/01/10 05:13:51;;;;;;;2.17;1.30;;;-2.00;56.00;;;;;;5032989;28;20036;-65
2024/01/10 05:16:17;;;;;;;2.70;0.80;;;-2.00;56.20;;;;;;5036153;28;20029;-65
2024/01/10 05:18:43;;;;;;;0.60;0.60;;;-2.10;56.10;;;;;;5036174;28;20084;-65
2024/01/10 05:21:09;;;;;;;1.33;0.80;;;-2.00;56.20;;;;;;5036896;28;20032;-65
2024/01/10 05:23:35;;;;;;;2.55;1.33;;;-2.00;56.10;;;;;;5033617;28;20608;-65
2024/01/10 05:26:01;;;;;;;2.05;0.80;;;-2.00;56.10;;;;;;5038344;28;20025;-65
2024/01/10 05:28:27;;;;;;;1.55;0.50;;;-2.00;56.10;;;;;;5031937;28;20041;-65
2024/01/10 05:30:53;;;;;;;4.28;1.02;;;-2.00;56.00;;;;;;5033499;28;20029;-65
2024/01/10 05:33:20;;;;;;;2.28;1.17;;;-2.00;56.10;;;;;;5032719;28;20021;-65
2024/01/10 05:35:46;;;;;;;1.38;1.00;;;-2.00;56.10;;;;;;5037736;28;20112;-65
2024/01/10 05:38:11;;;;;;;2.75;1.13;;;-2.00;56.70;;;;;;5032518;28;20389;-64
2024/01/10 05:40:37;;;;;;;1.00;0.80;;;-2.00;56.00;;;;;;5035781;28;20037;-65
2024/01/10 05:43:03;;;;;;;2.83;1.38;;;-1.90;56.10;;;;;;5040916;28;20048;-65
2024/01/10 05:45:29;;;;;;;1.60;1.08;;;-2.00;56.20;;;;;;5034759;28;20041;-65
2024/01/10 05:47:56;;;;;;;1.77;1.10;;;-2.00;56.20;;;;;;5041669;28;20028;-65
2024/01/10 05:50:22;;;;;;;1.90;0.93;;;-2.00;56.20;;;;;;5037918;28;20045;-64
2024/01/10 05:52:48;;;;;;;1.20;0.85;;;-2.00;56.30;;;;;;5045253;28;20036;-64
2024/01/10 05:55:14;;;;;;;1.27;0.82;;;-2.00;56.40;;;;;;5036956;28;20050;-65
2024/01/10 05:57:40;;;;;;;1.58;0.93;;;-2.10;56.40;;;;;;5037941;28;20036;-64
2024/01/10 06:00:09;;;;;;;1.65;1.17;;;-2.10;56.40;;;;;;5034686;28;20441;-64
2024/01/10 06:02:38;;;;;;;1.60;1.48;;;-2.00;56.50;;;;;;5040227;28;20400;-65
2024/01/10 06:05:11;;;;;;;2.40;1.13;;;-2.10;56.50;;;;;;5036452;28;20405;-64
2024/01/10 06:07:37;;;;;;;;;;;-2.10;56.70;;;;;;5036537;28;20037;-64
2024/01/10 06:10:03;;;;;;;2.78;0.73;;;-2.10;56.60;;;;;;5042690;28;20035;-64
2024/01/10 06:12:28;;;;;;;1.02;0.73;;;-2.10;56.50;;;;;;5044605;28;20108;-64
2024/01/10 06:14:54;;;;;;;1.40;1.08;;;-2.10;57.10;;;;;;5039442;28;20032;-64
2024/01/10 06:17:20;;;;;;;2.40;1.25;;;-2.10;56.60;;;;;;5036887;28;20036;-64
2024/01/10 06:19:46;;;;;;;1.90;1.23;;;-2.20;56.80;;;;;;5042626;28;20049;-64
2024/01/10 06:22:12;;;;;;;1.52;0.63;;;-2.10;56.90;;;;;;5039599;28;20110;-64
2024/01/10 06:24:37;;;;;;;0.93;0.73;;;-2.20;56.90;;;;;;5036919;28;20612;-65
2024/01/10 06:27:05;;;;;;;2.03;1.23;;;-2.20;57.00;;;;;;5035955;28;20029;-64
2024/01/10 06:29:31;;;;;;;1.65;0.95;;;-2.20;57.00;;;;;;5038516;28;20053;-64
2024/01/10 06:31:57;;;;;;;2.17;1.65;;;-2.20;57.10;;;;;;5037211;28;20060;-64
2024/01/10 06:34:24;;;;;;;2.13;1.20;;;-2.20;57.00;;;;;;5035785;28;20029;-64
2024/01/10 06:36:49;;;;;;;3.35;1.02;;;-2.20;57.00;;;;;;5034889;28;20021;-65
2024/01/10 06:39:16;;;;;;;2.20;1.42;;;-2.10;57.00;;;;;;5027347;28;20036;-64
2024/01/10 06:41:42;;;;;;;3.35;1.48;;;-2.20;56.90;;;;;;5035608;28;20124;-64
2024/01/10 06:44:08;;;;;;;1.77;1.38;;;-2.20;56.90;;;;;;5034608;28;20610;-64
2024/01/10 06:46:34;;;;;;;2.70;1.15;;;-2.20;56.90;;;;;;5039308;28;20048;-64
2024/01/10 06:49:00;;;;;;;2.55;1.00;;;-2.20;57.00;;;;;;5031679;28;20014;-64
2024/01/10 06:51:26;;;;;;;2.28;1.30;;;-2.10;57.10;;;;;;5038043;28;20032;-64
2024/01/10 06:53:52;;;;;;;2.17;1.30;;;-2.10;57.10;;;;;;5036681;28;20415;-64
2024/01/10 06:56:18;;;;;;;3.13;1.30;;;-2.20;57.00;;;;;;5031330;28;20032;-65
2024/01/10 06:58:44;;;;;;;3.05;0.95;;;-2.20;57.10;;;;;;5035665;28;20047;-64
2024/01/10 07:01:13;;;;;;;2.38;1.50;;;-2.20;57.00;;;;;;5034080;28;20025;-65
2024/01/10 07:03:40;;;;;;;3.80;1.55;;;-2.20;57.00;;;;;;5036181;28;20029;-65
2024/01/10 07:06:05;;;;;;;3.75;1.48;;;-2.20;56.90;;;;;;5032710;28;20048;-66
2024/01/10 07:08:31;;;;;;;2.10;1.38;;;-2.10;57.60;;;;;;5036117;28;20512;-66
2024/01/10 07:10:57;;;;;;;1.05;0.90;;;-2.20;57.20;;;;;;5032653;28;20029;-66
2024/01/10 07:13:23;;;;;;;1.33;1.05;;;-2.20;56.90;;;;;;5037108;28;20064;-65
2024/01/10 07:15:52;;;;;;;4.50;2.15;;;-2.20;56.90;;;;;;5039766;28;20044;-65
2024/01/10 07:18:18;;;;;;;1.13;0.98;;;-2.20;56.90;;;;;;5038961;28;20028;-65
2024/01/10 07:20:44;;;;;;;3.47;1.60;;;-2.20;56.80;;;;;;5041440;28;20103;-65
2024/01/10 07:23:10;;;;;;;2.35;1.83;;;-2.20;56.90;;;;;;5027730;28;20025;-64
2024/01/10 07:25:37;;;;;;;1.63;1.20;;;-2.20;56.80;;;;;;5041357;28;20108;-64
2024/01/10 07:28:03;;;;;;;3.30;1.58;;;-2.20;56.80;;;;;;5035370;28;20033;-64
2024/01/10 07:30:32;;;;;;;4.68;1.23;;;-2.20;56.80;;;;;;5032469;28;20116;-64
2024/01/10 07:32:58;;;;;;;2.65;1.25;;;-2.20;56.70;;;;;;5030396;28;20079;-64
2024/01/10 07:35:24;;;;;;;3.25;1.98;;;-2.20;56.80;;;;;;5035382;28;20030;-65
2024/01/10 07:37:49;;;;;;;1.98;1.02;;;-2.20;56.80;;;;;;5032114;28;20040;-66
2024/01/10 07:40:15;;;;;;;2.33;1.40;;;-2.20;56.70;;;;;;5034111;28;20025;-66
2024/01/10 07:42:43;;;;;;;1.80;1.15;;;-2.20;56.70;;;;;;5033086;28;20083;-67
2024/01/10 07:45:09;;;;;;;1.02;0.65;;;-2.20;56.60;;;;;;5032728;28;20041;-61
2024/01/10 07:47:37;;;;;;;3.83;1.70;;;-2.20;56.60;;;;;;5028996;28;20017;-67
2024/01/10 07:50:14;;;;;;;1.73;0.88;;;-2.20;56.60;;;;;;5032373;28;20516;-67
2024/01/10 07:52:40;;;;;;;2.45;1.85;;;-2.10;56.60;;;;;;5039671;28;20021;-65
2024/01/10 07:55:06;;;;;;;3.90;1.77;;;-2.10;56.50;;;;;;5033955;28;20041;-64
2024/01/10 07:57:33;;;;;;;4.30;1.45;;;-2.20;56.30;;;;;;5034192;28;20044;-65
2024/01/10 07:59:59;;;;;;;1.30;1.08;;;-2.10;56.40;;;;;;5034090;28;20128;-63
2024/01/10 08:02:25;;;;;;;2.92;1.73;;;-2.10;56.40;;;;;;5029331;28;20152;-67
2024/01/10 08:04:52;;;;;;;1.98;1.23;;;-2.10;56.30;;;;;;5032039;28;20536;-65
2024/01/10 08:07:18;;;;;;;3.70;1.05;;;-2.10;56.20;;;;;;5035493;28;20051;-61
2024/01/10 08:09:43;;;;;;;3.90;1.85;;;-2.00;56.10;;;;;;5035191;28;20476;-65
2024/01/10 08:12:11;;;;;;;3.42;1.73;;;-2.00;56.10;;;;;;5038680;28;20445;-67
2024/01/10 08:14:37;;;;;;;2.83;1.38;;;-2.00;56.00;;;;;;5039666;28;20030;-65
2024/01/10 08:17:03;;;;;;;3.58;2.17;;;-2.00;56.10;;;;;;5033130;28;20037;-65
2024/01/10 08:19:29;;;;;;;4.78;2.15;;;-2.00;56.00;;;;;;5069890;28;20087;-65
2024/01/10 08:21:55;;;;;;;4.53;2.22;;;-2.00;55.90;;;;;;5030045;28;20421;-64
2024/01/10 08:24:21;;;;;;;5.10;2.40;;;-2.00;55.80;;;;;;5038270;28;20029;-64
2024/01/10 08:26:51;;;;;;;7.10;2.25;;;-1.90;55.80;;;;;;5031593;28;20040;-64
2024/01/10 08:29:20;;;;;;;3.97;1.70;;;-1.90;55.80;;;;;;5034616;28;20098;-64
2024/01/10 08:31:47;;;;;;;2.25;1.70;;;-1.90;55.70;;;;;;5042489;28;20029;-64
2024/01/10 08:34:12;;;;;;;4.13;1.33;;;-1.90;55.60;;;;;;5039802;28;20057;-64
2024/01/10 08:36:38;;;;;;;2.22;1.27;;;-1.80;55.90;;;;;;5040893;28;20076;-63
2024/01/10 08:39:04;;;;;;;2.70;1.98;;;-1.80;55.50;;;;;;5020544;28;20516;-64
2024/01/10 08:41:30;;;;;;;3.35;1.65;;;-1.80;55.50;;;;;;5022115;28;20040;-64
2024/01/10 08:43:56;;;;;;;3.67;1.95;;;-1.80;55.40;;;;;;5030758;28;20107;-64
2024/01/10 08:46:24;;;;;;;1.80;1.45;;;-1.70;55.40;;;;;;5068825;28;20030;-64
2024/01/10 08:48:50;;;;;;;4.30;1.95;;;-1.70;55.30;;;;;;5030993;28;20022;-64
2024/01/10 08:51:16;;;;;;;5.80;2.00;;;-1.70;55.30;;;;;;5033947;28;20092;-64
2024/01/10 08:53:43;;;;;;;4.45;1.65;;;-1.70;55.30;;;;;;5032351;28;20033;-64
2024/01/10 08:56:09;;;;;;;5.32;2.38;;;-1.60;55.30;;;;;;5036225;28;20127;-64
2024/01/10 08:58:35;;;;;;;3.45;1.50;;;-1.60;55.20;;;;;;5022010;28;20441;-64
2024/01/10 09:01:01;;;;;;;5.43;2.03;;;-1.60;55.10;;;;;;5021684;28;20032;-64
2024/01/10 09:03:27;;;;;;;3.50;1.65;;;-1.60;55.20;;;;;;5031133;28;20044;-64
2024/01/10 09:05:52;;;;;;;1.90;1.58;;;-1.60;55.20;;;;;;5032531;28;20266;-64
2024/01/10 09:08:18;;;;;;;2.63;1.58;;;-1.60;55.20;;;;;;5023933;28;20049;-64
2024/01/10 09:10:43;;;;;;;5.30;1.88;;;-1.60;55.10;;;;;;5032479;28;20108;-64
2024/01/10 09:13:09;;;;;;;3.65;1.85;;;-1.50;55.10;;;;;;5030686;28;20445;-64
2024/01/10 09:15:35;;;;;;;3.35;1.70;;;-1.50;55.10;;;;;;5031209;28;20396;-64
2024/01/10 09:18:00;;;;;;;3.78;1.65;;;-1.50;55.00;;;;;;5021656;28;20513;-64
2024/01/10 09:20:26;;;;;;;5.72;2.15;;;-1.40;55.00;;;;;;5021366;28;20036;-64
2024/01/10 09:22:52;;;;;;;2.65;1.52;;;-1.40;54.90;;;;;;5010166;28;20053;-64
2024/01/10 09:25:17;;;;;;;4.40;1.80;;;-1.40;54.90;;;;;;5030932;28;20378;-64
2024/01/10 09:27:44;;;;;;;5.47;1.48;;;-1.40;54.80;;;;;;5034009;28;20041;-64
2024/01/10 09:30:11;;;;;;;4.25;1.85;;;-1.30;54.80;;;;;;5029112;28;20451;-64
2024/01/10 09:32:37;;;;;;;1.77;1.30;;;-1.30;55.20;;;;;;5030434;28;20029;-64
2024/01/10 09:35:03;;;;;;;3.45;1.98;;;-1.20;54.50;;;;;;5029455;28;20029;-64
2024/01/10 09:37:30;;;;;;;5.20;1.80;;;-1.20;54.40;;;;;;5030362;28;20030;-64
2024/01/10 09:39:55;;;;;;;6.03;2.78;;;-1.10;54.40;;;;;;5025259;28;20092;-64
2024/01/10 09:42:25;;;;;;;3.20;1.92;;;-1.10;54.20;;;;;;5030721;28;20033;-64
2024/01/10 09:44:51;;;;;;;3.50;1.95;;;-1.00;54.10;;;;;;5032995;28;20071;-64
2024/01/10 09:47:19;;;;;;;2.25;1.77;;;-1.00;54.00;;;;;;5032518;28;20037;-64
2024/01/10 09:49:46;;;;;;;9.90;2.35;;;-0.90;53.80;;;;;;5028020;28;20025;-64
2024/01/10 09:52:23;;;;;;;3.53;1.75;;;-0.80;53.70;;;;;;5032739;28;20176;-64
2024/01/10 09:54:58;;;;;;;5.20;2.80;;;-0.80;53.40;;;;;;5056554;28;20116;-64
2024/01/10 09:57:27;;;;;;;4.75;1.95;;;-0.70;53.20;;;;;;5028536;28;20095;-64
2024/01/10 09:59:54;;;;;;;5.88;1.70;;;-0.60;53.30;;;;;;5035291;28;20025;-64
2024/01/10 10:02:22;;;;;;;7.85;2.72;;;-0.60;53.20;;;;;;5034114;28;20443;-64
2024/01/10 10:04:54;;;;;;;2.05;1.58;;;-0.50;52.80;;;;;;5025149;28;20524;-64
2024/01/10 10:07:20;;;;;;;4.50;2.38;;;-0.40;52.80;;;;;;5029061;28;20049;-64
2024/01/10 10:09:46;;;;;;;6.55;2.22;;;-0.40;52.60;;;;;;5025575;28;20033;-64
2024/01/10 10:12:12;;;;;;;4.57;2.97;;;-0.30;52.50;;;;;;5030859;28;20036;-64
2024/01/10 10:14:37;;;;;;;9.20;2.55;;;-0.20;52.30;;;;;;5025603;28;20037;-64
2024/01/10 10:17:16;;;;;;;5.47;2.78;;;-0.20;51.80;;;;;;5059382;28;20037;-64
2024/01/10 10:19:43;;;;;;;8.38;2.30;;;-0.10;52.00;;;;;;5034798;28;20029;-64
2024/01/10 10:22:09;;;;;;;5.13;2.55;;;-0.10;51.90;;;;;;5031627;28;20139;-64
2024/01/10 10:24:35;;;;;;;5.95;3.00;;;0.00;51.80;;;;;;5028501;28;20044;-64
2024/01/10 10:27:00;;;;;;;7.70;2.78;;;0.10;51.60;;;;;;5066350;28;20041;-64
2024/01/10 10:29:26;;;;;;;5.65;2.60;;;0.30;51.40;;;;;;5009542;28;20061;-64
2024/01/10 10:31:52;;;;;;;5.28;1.92;;;0.40;51.30;;;;;;5035572;28;20108;-64
2024/01/10 10:34:22;;;;;;;5.28;3.25;;;1.20;51.30;;;;;;5035454;28;20036;-64
2024/01/10 10:36:48;;;;;;;9.57;3.35;;;3.10;48.90;;;;;;5074137;28;20013;-64
2024/01/10 10:39:16;;;;;;;7.18;3.33;;;5.20;45.20;;;;;;5033800;28;20029;-64
2024/01/10 10:41:43;;;;;;;8.00;3.45;;;7.30;41.50;;;;;;5035838;28;20029;-64
2024/01/10 10:44:12;;;;;;;10.38;4.15;;;9.20;38.60;;;;;;5035944;28;20057;-64
2024/01/10 10:46:39;;;;;;;6.45;2.97;;;10.40;36.30;;;;;;5033260;28;20528;-64
2024/01/10 10:49:11;;;;;;;6.97;3.13;;;10.80;35.40;;;;;;5034157;28;20087;-65
2024/01/10 10:51:37;;;;;;;5.10;2.65;;;10.30;36.00;;;;;;5041718;28;20087;-66
2024/01/10 10:54:04;;;;;;;8.57;3.25;;;9.70;36.70;;;;;;5035029;28;20036;-64
2024/01/10 10:56:32;;;;;;;3.60;2.25;;;9.10;37.00;;;;;;5036891;28;20547;-64
2024/01/10 10:59:00;;;;;;;6.78;3.05;;;8.50;37.70;;;;;;5034952;28;20032;-64
2024/01/10 11:01:27;;;;;;;4.82;3.08;;;8.50;37.70;;;;;;5034207;28;20026;-64
2024/01/10 11:03:54;;;;;;;5.90;2.90;;;9.50;36.80;;;;;;5032689;28;20025;-64
2024/01/10 11:06:22;;;;;;;4.53;2.97;;;10.70;35.00;;;;;;5036362;28;20083;-65
2024/01/10 11:09:11;;;;;;;8.80;3.03;;;11.40;34.10;;;;;;5032900;28;20042;-65
2024/01/10 11:11:39;;;;;;;6.20;3.08;;;11.70;33.70;;;;;;5040161;28;20025;-64
2024/01/10 11:14:04;;;;;;;6.15;2.90;;;12.40;32.70;;;;;;5034734;28;20596;-64
2024/01/10 11:16:53;;;;;;;6.55;3.30;;;13.40;31.40;;;;;;5038742;28;20116;-64
2024/01/10 11:19:56;;;;;;;6.40;3.25;;;14.40;30.00;;;;;;5033267;28;20033;-65
2024/01/10 11:22:43;;;;;;;6.85;3.45;;;15.60;29.10;;;;;;5064621;28;20025;-65
2024/01/10 11:25:09;;;;;;;5.70;3.42;;;16.50;28.50;;;;;;5038077;28;20037;-66
2024/01/10 11:27:36;;;;;;;3.42;2.15;;;17.10;27.70;;;;;;5035034;28;20569;-66
2024/01/10 11:30:04;;;;;;;3.53;2.35;;;17.60;27.60;;;;;;5037373;28;20083;-66
2024/01/10 11:32:32;;;;;;;5.95;2.97;;;18.10;27.10;;;;;;5034339;28;20497;-66
2024/01/10 11:34:59;;;;;;;7.90;3.63;;;18.50;26.60;;;;;;5030807;28;20040;-66
2024/01/10 11:37:44;;;;;;;3.80;2.20;;;18.50;26.30;;;;;;5030044;28;20104;-66
2024/01/10 11:40:12;;;;;;;10.93;2.95;;;18.50;26.60;;;;;;5027076;28;20029;-66
2024/01/10 11:42:45;;;;;;;4.35;2.67;;;18.80;26.30;;;;;;5028079;28;20033;-66
2024/01/10 11:45:30;;;;;;;8.40;3.85;;;19.20;25.50;;;;;;5029808;28;20021;-64
2024/01/10 11:47:56;;;;;;;5.30;2.60;;;19.50;25.10;;;;;;5028774;28;20018;-65
2024/01/10 11:50:23;;;;;;;5.55;2.85;;;19.90;24.90;;;;;;5029202;28;20115;-66
2024/01/10 11:52:53;;;;;;;7.70;2.67;;;20.20;24.80;;;;;;5042399;28;20448;-66
2024/01/10 11:55:47;;;;;;;6.35;2.88;;;20.10;24.60;;;;;;5037625;28;20380;-66
2024/01/10 11:58:14;;;;;;;6.07;2.42;;;20.20;24.10;;;;;;5027181;28;20064;-66
2024/01/10 12:00:41;;;;;;;5.18;2.95;;;20.40;24.20;;;;;;5034078;28;20041;-66
2024/01/10 12:03:07;;;;;;;6.25;3.30;;;20.60;24.20;;;;;;5038784;28;20029;-65
2024/01/10 12:05:35;;;;;;;5.90;3.15;;;20.90;23.80;;;;;;5027152;28;20037;-66
2024/01/10 12:08:04;;;;;;;4.18;2.55;;;21.00;23.50;;;;;;5033749;28;20095;-64
2024/01/10 12:10:35;;;;;;;6.05;3.15;;;21.10;23.50;;;;;;5029517;28;20116;-64
2024/01/10 12:13:01;;;;;;;5.50;2.38;;;21.10;23.60;;;;;;5023519;28;20037;-64
2024/01/10 12:15:27;;;;;;;6.53;2.45;;;21.10;23.50;;;;;;5027786;28;20029;-62
2024/01/10 12:17:52;;;;;;;8.43;3.25;;;21.30;23.50;;;;;;5035706;28;20035;-64
2024/01/10 12:20:18;;;;;;;6.07;2.65;;;21.40;23.40;;;;;;5036948;28;20336;-64
2024/01/10 12:22:44;;;;;;;6.95;2.30;;;21.50;23.40;;;;;;5034639;28;20026;-64
2024/01/10 12:25:10;;;;;;;4.07;2.60;;;21.60;23.20;;;;;;5030565;28;20036;-63
2024/01/10 12:27:36;;;;;;;6.35;2.95;;;21.70;23.20;;;;;;5035810;28;20018;-63
2024/01/10 12:30:02;;;;;;;6.20;3.03;;;21.90;23.20;;;;;;5029334;28;20564;-64
2024/01/10 12:32:28;;;;;;;6.57;2.70;;;21.90;22.80;;;;;;5036244;28;20034;-64
2024/01/10 12:35:04;;;;;;;7.53;3.10;;;21.80;22.80;;;;;;5033357;28;20457;-65
2024/01/10 12:37:31;;;;;;;5.88;2.85;;;21.80;22.70;;;;;;5027789;28;20108;-64
2024/01/10 12:39:57;;;;;;;8.27;3.80;;;21.80;22.80;;;;;;5039484;28;20033;-64
2024/01/10 12:42:26;;;;;;;6.70;2.50;;;21.60;22.40;;;;;;5036421;28;20407;-63
2024/01/10 12:44:52;;;;;;;5.55;2.60;;;21.10;22.60;;;;;;5026811;28;20504;-63
2024/01/10 12:47:23;;;;;;;6.88;2.72;;;20.70;23.00;;;;;;5028472;28;20021;-66